Time,TemperatureF,DewpointF,PressureIn,WindDirection,WindDirectionDegrees,WindSpeedMPH,WindSpeedGustMPH,Humidity,HourlyPrecipIn,Conditions,Clouds,dailyrainin,SoftwareType,DateUTC
2013-02-25 00:01:00,36.0,17.0,-100.00,North,5,18.0,25.0,46,-99.99,,,-99.99,,2013-02-25 05:01:00,
2013-02-25 00:11:00,36.0,17.0,-100.00,North,5,23.0,29.0,45,-99.99,,,-99.99,,2013-02-25 05:11:00,
2013-02-25 00:22:00,36.0,17.0,-100.00,North,5,23.0,29.0,45,-99.99,,,-99.99,,2013-02-25 05:22:00,
2013-02-25 00:32:00,36.0,16.0,-100.00,North,5,22.0,31.0,45,-99.99,,,-99.99,,2013-02-25 05:32:00,
2013-02-25 00:42:00,36.0,17.0,-100.00,North,5,22.0,29.0,45,-99.99,,,-99.99,,2013-02-25 05:42:00,
2013-02-25 00:52:00,36.0,17.0,-100.00,North,5,22.0,29.0,45,-99.99,,,-99.99,,2013-02-25 05:52:00,
2013-02-25 01:03:00,35.0,17.0,-100.00,North,5,19.0,27.0,46,-99.99,,,-99.99,,2013-02-25 06:03:00,
2013-02-25 01:12:00,35.0,17.0,-100.00,North,5,22.0,29.0,46,-99.99,,,-99.99,,2013-02-25 06:12:00,
2013-02-25 01:21:00,35.0,17.0,-100.00,North,5,22.0,29.0,46,-99.99,,,-99.99,,2013-02-25 06:21:00,
2013-02-25 01:32:00,35.0,16.0,-100.00,North,5,20.0,28.0,46,-99.99,,,-99.99,,2013-02-25 06:32:00,
2013-02-25 01:42:00,35.0,16.0,-100.00,North,5,20.0,28.0,46,-99.99,,,-99.99,,2013-02-25 06:42:00,
2013-02-25 02:01:00,35.0,16.0,-100.00,North,5,20.0,28.0,46,-99.99,,,-99.99,,2013-02-25 07:01:00,
2013-02-25 02:11:00,35.0,16.0,-100.00,North,5,19.0,32.0,46,-99.99,,,-99.99,,2013-02-25 07:11:00,
2013-02-25 02:21:00,35.0,16.0,-100.00,North,5,19.0,32.0,46,-99.99,,,-99.99,,2013-02-25 07:21:00,
2013-02-25 02:32:00,34.0,16.0,-100.00,North,5,20.0,29.0,47,-99.99,,,-99.99,,2013-02-25 07:32:00,
2013-02-25 02:42:00,34.0,16.0,-100.00,North,5,21.0,27.0,47,-99.99,,,-99.99,,2013-02-25 07:42:00,
2013-02-25 02:52:00,34.0,16.0,-100.00,North,5,21.0,27.0,47,-99.99,,,-99.99,,2013-02-25 07:52:00,
2013-02-25 03:01:00,34.0,16.0,-100.00,North,5,18.0,26.0,48,-99.99,,,-99.99,,2013-02-25 08:01:00,
2013-02-25 03:11:00,34.0,16.0,-100.00,North,5,20.0,24.0,48,-99.99,,,-99.99,,2013-02-25 08:11:00,
2013-02-25 03:22:00,34.0,16.0,-100.00,North,5,20.0,24.0,48,-99.99,,,-99.99,,2013-02-25 08:22:00,
2013-02-25 03:32:00,33.0,16.0,-100.00,North,5,17.0,25.0,48,-99.99,,,-99.99,,2013-02-25 08:32:00,
2013-02-25 03:42:00,33.0,16.0,-100.00,North,5,19.0,25.0,49,-99.99,,,-99.99,,2013-02-25 08:42:00,
2013-02-25 03:52:00,33.0,16.0,-100.00,North,5,19.0,25.0,49,-99.99,,,-99.99,,2013-02-25 08:52:00,
2013-02-25 04:02:00,33.0,16.0,-100.00,North,5,15.0,22.0,49,-99.99,,,-99.99,,2013-02-25 09:02:00,
2013-02-25 04:12:00,33.0,16.0,-100.00,North,5,18.0,23.0,50,-99.99,,,-99.99,,2013-02-25 09:12:00,
2013-02-25 04:21:00,33.0,16.0,-100.00,North,5,18.0,23.0,50,-99.99,,,-99.99,,2013-02-25 09:21:00,
2013-02-25 04:32:00,33.0,16.0,-100.00,North,5,15.0,25.0,50,-99.99,,,-99.99,,2013-02-25 09:32:00,
2013-02-25 04:42:00,33.0,16.0,-100.00,North,5,17.0,23.0,50,-99.99,,,-99.99,,2013-02-25 09:42:00,
2013-02-25 04:52:00,33.0,16.0,-100.00,North,5,17.0,23.0,50,-99.99,,,-99.99,,2013-02-25 09:52:00,
2013-02-25 05:01:00,33.0,17.0,-100.00,North,5,17.0,23.0,51,-99.99,,,-99.99,,2013-02-25 10:01:00,
2013-02-25 05:11:00,33.0,17.0,-100.00,North,5,15.0,23.0,51,-99.99,,,-99.99,,2013-02-25 10:11:00,
2013-02-25 05:21:00,33.0,17.0,-100.00,North,5,15.0,23.0,51,-99.99,,,-99.99,,2013-02-25 10:21:00,
2013-02-25 05:32:00,33.0,16.0,-100.00,North,5,14.0,20.0,51,-99.99,,,-99.99,,2013-02-25 10:32:00,
2013-02-25 05:42:00,33.0,17.0,-100.00,North,5,13.0,17.0,52,-99.99,,,-99.99,,2013-02-25 10:42:00,
2013-02-25 05:52:00,33.0,17.0,-100.00,North,5,13.0,17.0,52,-99.99,,,-99.99,,2013-02-25 10:52:00,
2013-02-25 06:01:00,33.0,17.0,-100.00,North,5,14.0,19.0,52,-99.99,,,-99.99,,2013-02-25 11:01:00,
2013-02-25 06:11:00,33.0,17.0,-100.00,North,5,13.0,17.0,52,-99.99,,,-99.99,,2013-02-25 11:11:00,
2013-02-25 06:22:00,33.0,17.0,-100.00,North,5,13.0,17.0,52,-99.99,,,-99.99,,2013-02-25 11:22:00,
2013-02-25 06:32:00,32.0,17.0,-100.00,North,5,12.0,18.0,53,-99.99,,,-99.99,,2013-02-25 11:32:00,
2013-02-25 06:42:00,33.0,17.0,-100.00,North,5,13.0,19.0,53,-99.99,,,-99.99,,2013-02-25 11:42:00,
2013-02-25 06:52:00,33.0,17.0,-100.00,North,5,13.0,19.0,53,-99.99,,,-99.99,,2013-02-25 11:52:00,
2013-02-25 07:02:00,33.0,17.0,-100.00,North,5,13.0,21.0,53,-99.99,,,-99.99,,2013-02-25 12:02:00,
2013-02-25 07:11:00,33.0,18.0,-100.00,North,5,15.0,20.0,54,-99.99,,,-99.99,,2013-02-25 12:11:00,
2013-02-25 07:22:00,33.0,18.0,-100.00,North,5,15.0,20.0,54,-99.99,,,-99.99,,2013-02-25 12:22:00,
2013-02-25 07:32:00,33.0,18.0,-100.00,North,5,14.0,20.0,54,-99.99,,,-99.99,,2013-02-25 12:32:00,
2013-02-25 07:42:00,34.0,18.0,-100.00,North,5,14.0,20.0,53,-99.99,,,-99.99,,2013-02-25 12:42:00,
2013-02-25 07:54:00,34.0,18.0,-100.00,North,5,14.0,20.0,53,-99.99,,,-99.99,,2013-02-25 12:54:00,
2013-02-25 08:02:00,35.0,19.0,-100.00,North,5,15.0,21.0,51,-99.99,,,-99.99,,2013-02-25 13:02:00,
2013-02-25 08:12:00,36.0,19.0,-100.00,North,5,15.0,20.0,49,-99.99,,,-99.99,,2013-02-25 13:12:00,
2013-02-25 08:23:00,36.0,19.0,-100.00,North,5,15.0,20.0,49,-99.99,,,-99.99,,2013-02-25 13:23:00,
2013-02-25 08:32:00,38.0,19.0,-100.00,North,5,17.0,23.0,46,-99.99,,,-99.99,,2013-02-25 13:32:00,
2013-02-25 08:42:00,39.0,19.0,-100.00,North,5,17.0,22.0,44,-99.99,,,-99.99,,2013-02-25 13:42:00,
2013-02-25 08:52:00,39.0,19.0,-100.00,North,5,17.0,22.0,44,-99.99,,,-99.99,,2013-02-25 13:52:00,
2013-02-25 09:04:00,39.0,18.0,-100.00,North,5,17.0,21.0,43,-99.99,,,-99.99,,2013-02-25 14:04:00,
2013-02-25 09:18:00,40.0,19.0,-100.00,North,5,15.0,22.0,42,-99.99,,,-99.99,,2013-02-25 14:18:00,
2013-02-25 09:32:00,40.0,19.0,-100.00,North,5,18.0,23.0,42,-99.99,,,-99.99,,2013-02-25 14:32:00,
2013-02-25 09:42:00,40.0,19.0,-100.00,North,5,17.0,20.0,42,-99.99,,,-99.99,,2013-02-25 14:42:00,
2013-02-25 09:52:00,40.0,19.0,-100.00,North,5,17.0,20.0,42,-99.99,,,-99.99,,2013-02-25 14:52:00,
2013-02-25 10:03:00,41.0,19.0,-100.00,North,5,13.0,18.0,41,-99.99,,,-99.99,,2013-02-25 15:03:00,
2013-02-25 10:11:00,41.0,18.0,-100.00,North,5,14.0,20.0,40,-99.99,,,-99.99,,2013-02-25 15:11:00,
2013-02-25 10:22:00,41.0,18.0,-100.00,North,5,14.0,20.0,40,-99.99,,,-99.99,,2013-02-25 15:22:00,
2013-02-25 10:32:00,42.0,19.0,-100.00,North,5,12.0,15.0,39,-99.99,,,-99.99,,2013-02-25 15:32:00,
2013-02-25 10:42:00,40.0,18.0,-100.00,North,5,10.0,16.0,41,-99.99,,,-99.99,,2013-02-25 15:42:00,
2013-02-25 10:52:00,40.0,18.0,-100.00,North,5,10.0,16.0,41,-99.99,,,-99.99,,2013-02-25 15:52:00,
2013-02-25 11:02:00,40.0,19.0,-100.00,North,5,10.0,15.0,41,-99.99,,,-99.99,,2013-02-25 16:02:00,
2013-02-25 11:12:00,41.0,18.0,-100.00,North,5,9.0,13.0,38,-99.99,,,-99.99,,2013-02-25 16:12:00,
2013-02-25 11:22:00,41.0,18.0,-100.00,North,5,9.0,13.0,38,-99.99,,,-99.99,,2013-02-25 16:22:00,
2013-02-25 11:32:00,41.0,18.0,-100.00,North,5,6.0,13.0,39,-99.99,,,-99.99,,2013-02-25 16:32:00,
2013-02-25 11:42:00,41.0,18.0,-100.00,North,5,8.0,11.0,39,-99.99,,,-99.99,,2013-02-25 16:42:00,
2013-02-25 11:51:00,41.0,18.0,-100.00,North,5,8.0,11.0,39,-99.99,,,-99.99,,2013-02-25 16:51:00,
2013-02-25 12:02:00,41.0,18.0,-100.00,North,5,5.0,9.0,39,-99.99,,,-99.99,,2013-02-25 17:02:00,
2013-02-25 12:11:00,41.0,18.0,-100.00,North,5,5.0,9.0,38,-99.99,,,-99.99,,2013-02-25 17:11:00,
2013-02-25 12:22:00,41.0,18.0,-100.00,North,5,5.0,9.0,38,-99.99,,,-99.99,,2013-02-25 17:22:00,
2013-02-25 12:32:00,43.0,19.0,-100.00,North,5,0.0,5.0,37,-99.99,,,-99.99,,2013-02-25 17:32:00,
2013-02-25 12:42:00,44.0,19.0,-100.00,North,5,4.0,10.0,36,-99.99,,,-99.99,,2013-02-25 17:42:00,
2013-02-25 12:52:00,44.0,19.0,-100.00,North,5,4.0,10.0,36,-99.99,,,-99.99,,2013-02-25 17:52:00,
2013-02-25 13:02:00,44.0,19.0,-100.00,North,5,2.0,5.0,36,-99.99,,,-99.99,,2013-02-25 18:02:00,
2013-02-25 13:33:00,44.0,19.0,-100.00,North,5,7.0,11.0,37,-99.99,,,-99.99,,2013-02-25 18:33:00,
2013-02-25 13:42:00,44.0,19.0,-100.00,North,5,10.0,12.0,37,-99.99,,,-99.99,,2013-02-25 18:42:00,
2013-02-25 13:52:00,44.0,19.0,-100.00,North,5,10.0,12.0,37,-99.99,,,-99.99,,2013-02-25 18:52:00,
2013-02-25 14:02:00,44.0,19.0,-100.00,North,5,12.0,17.0,37,-99.99,,,-99.99,,2013-02-25 19:02:00,
2013-02-25 14:11:00,44.0,19.0,-100.00,North,5,11.0,14.0,37,-99.99,,,-99.99,,2013-02-25 19:11:00,
2013-02-25 14:22:00,44.0,19.0,-100.00,North,5,11.0,14.0,37,-99.99,,,-99.99,,2013-02-25 19:22:00,
2013-02-25 14:32:00,44.0,20.0,-100.00,North,5,7.0,14.0,39,-99.99,,,-99.99,,2013-02-25 19:32:00,
2013-02-25 14:42:00,44.0,22.0,-100.00,North,5,5.0,10.0,40,-99.99,,,-99.99,,2013-02-25 19:42:00,
2013-02-25 14:52:00,44.0,22.0,-100.00,North,5,5.0,10.0,40,-99.99,,,-99.99,,2013-02-25 19:52:00,
2013-02-25 15:01:00,44.0,21.0,-100.00,North,5,4.0,11.0,39,-99.99,,,-99.99,,2013-02-25 20:01:00,
2013-02-25 15:11:00,45.0,20.0,-100.00,North,5,9.0,12.0,37,-99.99,,,-99.99,,2013-02-25 20:11:00,
2013-02-25 15:22:00,45.0,20.0,-100.00,North,5,9.0,12.0,37,-99.99,,,-99.99,,2013-02-25 20:22:00,
2013-02-25 15:32:00,45.0,20.0,-100.00,North,5,9.0,12.0,36,-99.99,,,-99.99,,2013-02-25 20:32:00,
2013-02-25 15:42:00,46.0,20.0,-100.00,North,5,5.0,9.0,35,-99.99,,,-99.99,,2013-02-25 20:42:00,
2013-02-25 15:52:00,46.0,20.0,-100.00,North,5,5.0,9.0,35,-99.99,,,-99.99,,2013-02-25 20:52:00,
2013-02-25 16:02:00,45.0,19.0,-100.00,North,5,6.0,11.0,35,-99.99,,,-99.99,,2013-02-25 21:02:00,
2013-02-25 16:32:00,43.0,19.0,-100.00,North,5,8.0,16.0,37,-99.99,,,-99.99,,2013-02-25 21:32:00,
2013-02-25 16:42:00,42.0,19.0,-100.00,North,5,10.0,16.0,39,-99.99,,,-99.99,,2013-02-25 21:42:00,
2013-02-25 16:52:00,42.0,19.0,-100.00,North,5,10.0,16.0,39,-99.99,,,-99.99,,2013-02-25 21:52:00,
2013-02-25 17:02:00,42.0,19.0,-100.00,North,5,7.0,15.0,38,-99.99,,,-99.99,,2013-02-25 22:02:00,
2013-02-25 17:11:00,42.0,18.0,-100.00,North,5,5.0,12.0,37,-99.99,,,-99.99,,2013-02-25 22:11:00,
2013-02-25 17:21:00,42.0,18.0,-100.00,North,5,5.0,12.0,37,-99.99,,,-99.99,,2013-02-25 22:21:00,
2013-02-25 17:32:00,41.0,21.0,-100.00,North,5,10.0,13.0,45,-99.99,,,-99.99,,2013-02-25 22:32:00,
2013-02-25 17:42:00,41.0,20.0,-100.00,North,5,9.0,11.0,42,-99.99,,,-99.99,,2013-02-25 22:42:00,
2013-02-25 17:52:00,41.0,20.0,-100.00,North,5,9.0,11.0,42,-99.99,,,-99.99,,2013-02-25 22:52:00,
2013-02-25 18:01:00,40.0,20.0,-100.00,North,5,11.0,13.0,45,-99.99,,,-99.99,,2013-02-25 23:01:00,
2013-02-25 18:11:00,40.0,20.0,-100.00,North,5,7.0,10.0,44,-99.99,,,-99.99,,2013-02-25 23:11:00,
2013-02-25 18:22:00,40.0,20.0,-100.00,North,5,7.0,10.0,44,-99.99,,,-99.99,,2013-02-25 23:22:00,
2013-02-25 18:32:00,40.0,22.0,-100.00,North,5,6.0,10.0,47,-99.99,,,-99.99,,2013-02-25 23:32:00,
2013-02-25 18:42:00,40.0,23.0,-100.00,North,5,4.0,8.0,51,-99.99,,,-99.99,,2013-02-25 23:42:00,
2013-02-25 18:52:00,40.0,23.0,-100.00,North,5,4.0,8.0,51,-99.99,,,-99.99,,2013-02-25 23:52:00,
2013-02-25 19:02:00,39.0,23.0,-100.00,North,5,4.0,7.0,52,-99.99,,,-99.99,,2013-02-26 00:02:00,
2013-02-25 19:12:00,39.0,24.0,-100.00,North,5,2.0,6.0,53,-99.99,,,-99.99,,2013-02-26 00:12:00,
2013-02-25 19:22:00,39.0,24.0,-100.00,North,5,2.0,6.0,53,-99.99,,,-99.99,,2013-02-26 00:22:00,
2013-02-25 19:32:00,39.0,24.0,-100.00,North,5,2.0,3.0,54,-99.99,,,-99.99,,2013-02-26 00:32:00,
2013-02-25 19:42:00,39.0,25.0,-100.00,North,5,0.0,2.0,56,-99.99,,,-99.99,,2013-02-26 00:42:00,
2013-02-25 19:52:00,39.0,25.0,-100.00,North,5,0.0,2.0,56,-99.99,,,-99.99,,2013-02-26 00:52:00,
2013-02-25 20:02:00,39.0,25.0,-100.00,North,5,0.0,2.0,57,-99.99,,,-99.99,,2013-02-26 01:02:00,
2013-02-25 20:11:00,38.0,25.0,-100.00,North,5,0.0,1.0,59,-99.99,,,-99.99,,2013-02-26 01:11:00,
2013-02-25 20:21:00,38.0,25.0,-100.00,North,5,0.0,1.0,59,-99.99,,,-99.99,,2013-02-26 01:21:00,
2013-02-25 20:32:00,39.0,26.0,-100.00,North,5,1.0,2.0,61,-99.99,,,-99.99,,2013-02-26 01:32:00,
2013-02-25 20:42:00,39.0,27.0,-100.00,North,10,2.0,3.0,62,-99.99,,,-99.99,,2013-02-26 01:42:00,
2013-02-25 20:52:00,39.0,27.0,-100.00,North,10,2.0,3.0,62,-99.99,,,-99.99,,2013-02-26 01:52:00,
2013-02-25 21:01:00,39.0,28.0,-100.00,North,10,2.0,2.0,65,-99.99,,,-99.99,,2013-02-26 02:01:00,
2013-02-25 21:11:00,38.0,29.0,-100.00,North,10,3.0,3.0,68,-99.99,,,-99.99,,2013-02-26 02:11:00,
2013-02-25 21:22:00,38.0,29.0,-100.00,North,10,3.0,3.0,68,-99.99,,,-99.99,,2013-02-26 02:22:00,
2013-02-25 21:32:00,38.0,29.0,-100.00,North,10,2.0,6.0,69,-99.99,,,-99.99,,2013-02-26 02:32:00,
2013-02-25 21:42:00,38.0,29.0,-100.00,North,10,3.0,6.0,70,-99.99,,,-99.99,,2013-02-26 02:42:00,
2013-02-25 21:52:00,38.0,29.0,-100.00,North,10,3.0,6.0,70,-99.99,,,-99.99,,2013-02-26 02:52:00,
2013-02-25 22:02:00,38.0,30.0,-100.00,NNE,15,5.0,7.0,72,-99.99,,,-99.99,,2013-02-26 03:02:00,
2013-02-25 22:12:00,38.0,30.0,-100.00,NNE,25,7.0,9.0,72,-99.99,,,-99.99,,2013-02-26 03:12:00,
2013-02-25 22:22:00,38.0,30.0,-100.00,NNE,25,7.0,9.0,72,-99.99,,,-99.99,,2013-02-26 03:22:00,
2013-02-25 22:32:00,38.0,29.0,-100.00,NNE,25,7.0,9.0,71,-99.99,,,-99.99,,2013-02-26 03:32:00,
2013-02-25 22:42:00,38.0,29.0,-100.00,NNE,25,3.0,7.0,71,-99.99,,,-99.99,,2013-02-26 03:42:00,
2013-02-25 22:52:00,38.0,29.0,-100.00,NNE,25,3.0,7.0,71,-99.99,,,-99.99,,2013-02-26 03:52:00,
2013-02-25 23:02:00,38.0,30.0,-100.00,NNE,25,7.0,9.0,71,-99.99,,,-99.99,,2013-02-26 04:02:00,
2013-02-25 23:11:00,38.0,29.0,-100.00,NNE,30,5.0,8.0,71,-99.99,,,-99.99,,2013-02-26 04:11:00,
2013-02-25 23:22:00,38.0,29.0,-100.00,NNE,30,5.0,8.0,71,-99.99,,,-99.99,,2013-02-26 04:22:00,
2013-02-25 23:32:00,38.0,30.0,-100.00,NE,35,3.0,6.0,72,-99.99,,,-99.99,,2013-02-26 04:32:00,
2013-02-25 23:42:00,38.0,30.0,-100.00,NE,40,4.0,6.0,73,-99.99,,,-99.99,,2013-02-26 04:42:00,
2013-02-25 23:52:00,38.0,30.0,-100.00,NE,40,4.0,6.0,73,-99.99,,,-99.99,,2013-02-26 04:52:00,